sensor_id;sensor_type;location;lat;lon;timestamp;temperature;humidity
37956;DHT22;23776;51.592;7.180;2023-09-30T00:01:45;13.30;1.00
37956;DHT22;23776;51.592;7.180;2023-09-30T00:04:11;13.30;1.00
37956;DHT22;23776;51.592;7.180;2023-09-30T00:06:37;13.30;1.00
37956;DHT22;23776;51.592;7.180;2023-09-30T00:09:02;13.30;1.00
37956;DHT22;23776;51.592;7.180;2023-09-30T00:11:28;13.30;1.00
37956;DHT22;23776;51.592;7.180;2023-09-30T00:13:54;13.30;1.00
37956;DHT22;23776;51.592;7.180;2023-09-30T00:16:19;13.30;1.00
37956;DHT22;23776;51.592;7.180;2023-09-30T00:18:45;13.20;1.00
37956;DHT22;23776;51.592;7.180;2023-09-30T00:21:11;13.30;1.00
37956;DHT22;23776;51.592;7.180;2023-09-30T00:23:37;13.20;1.00
37956;DHT22;23776;51.592;7.180;2023-09-30T00:26:03;13.20;1.00
37956;DHT22;23776;51.592;7.180;2023-09-30T00:28:29;13.20;1.00
37956;DHT22;23776;51.592;7.180;2023-09-30T00:30:54;13.20;1.00
37956;DHT22;23776;51.592;7.180;2023-09-30T00:33:20;13.20;1.00
37956;DHT22;23776;51.592;7.180;2023-09-30T00:35:46;13.20;31.10
37956;DHT22;23776;51.592;7.180;2023-09-30T00:38:12;13.20;32.80
37956;DHT22;23776;51.592;7.180;2023-09-30T00:40:37;13.30;11.40
37956;DHT22;23776;51.592;7.180;2023-09-30T00:43:03;13.30;9.90
37956;DHT22;23776;51.592;7.180;2023-09-30T00:45:29;13.30;22.20
37956;DHT22;23776;51.592;7.180;2023-09-30T00:47:55;13.30;35.70
37956;DHT22;23776;51.592;7.180;2023-09-30T00:52:48;13.30;54.20
37956;DHT22;23776;51.592;7.180;2023-09-30T00:55:15;13.40;71.00
37956;DHT22;23776;51.592;7.180;2023-09-30T00:57:42;13.40;90.50
37956;DHT22;23776;51.592;7.180;2023-09-30T01:00:09;13.40;81.90
37956;DHT22;23776;51.592;7.180;2023-09-30T01:02:39;13.40;94.20
37956;DHT22;23776;51.592;7.180;2023-09-30T01:05:05;13.40;87.50
37956;DHT22;23776;51.592;7.180;2023-09-30T01:07:30;13.30;97.30
37956;DHT22;23776;51.592;7.180;2023-09-30T01:09:56;13.30;96.70
37956;DHT22;23776;51.592;7.180;2023-09-30T01:12:22;13.30;99.90
37956;DHT22;23776;51.592;7.180;2023-09-30T01:14:47;13.40;99.90
37956;DHT22;23776;51.592;7.180;2023-09-30T01:17:14;13.30;99.90
37956;DHT22;23776;51.592;7.180;2023-09-30T01:19:41;13.40;99.90
37956;DHT22;23776;51.592;7.180;2023-09-30T01:22:08;13.40;59.80
37956;DHT22;23776;51.592;7.180;2023-09-30T01:24:41;13.40;42.30
37956;DHT22;23776;51.592;7.180;2023-09-30T01:27:10;13.30;20.30
37956;DHT22;23776;51.592;7.180;2023-09-30T01:29:37;13.30;8.40
37956;DHT22;23776;51.592;7.180;2023-09-30T01:32:05;13.20;1.00
37956;DHT22;23776;51.592;7.180;2023-09-30T01:34:34;13.20;36.90
37956;DHT22;23776;51.592;7.180;2023-09-30T01:36:59;13.30;38.10
37956;DHT22;23776;51.592;7.180;2023-09-30T01:39:25;13.30;22.70
37956;DHT22;23776;51.592;7.180;2023-09-30T01:41:51;13.30;63.90
37956;DHT22;23776;51.592;7.180;2023-09-30T01:44:16;13.30;80.20
37956;DHT22;23776;51.592;7.180;2023-09-30T01:46:43;13.30;97.40
37956;DHT22;23776;51.592;7.180;2023-09-30T01:49:09;13.30;99.90
37956;DHT22;23776;51.592;7.180;2023-09-30T01:51:35;13.30;99.90
37956;DHT22;23776;51.592;7.180;2023-09-30T01:54:01;13.20;99.90
37956;DHT22;23776;51.592;7.180;2023-09-30T01:56:26;13.10;99.90
37956;DHT22;23776;51.592;7.180;2023-09-30T01:58:52;13.10;99.90
37956;DHT22;23776;51.592;7.180;2023-09-30T02:01:18;13.20;99.90
37956;DHT22;23776;51.592;7.180;2023-09-30T02:03:43;13.10;99.90
37956;DHT22;23776;51.592;7.180;2023-09-30T02:06:09;13.10;99.90
37956;DHT22;23776;51.592;7.180;2023-09-30T02:08:35;13.10;99.90
37956;DHT22;23776;51.592;7.180;2023-09-30T02:11:02;13.10;99.90
37956;DHT22;23776;51.592;7.180;2023-09-30T02:13:28;13.00;99.90
37956;DHT22;23776;51.592;7.180;2023-09-30T02:15:53;13.00;99.90
37956;DHT22;23776;51.592;7.180;2023-09-30T02:18:21;13.00;99.90
37956;DHT22;23776;51.592;7.180;2023-09-30T02:20:47;13.00;99.90
37956;DHT22;23776;51.592;7.180;2023-09-30T02:23:12;13.00;99.90
37956;DHT22;23776;51.592;7.180;2023-09-30T02:25:39;13.00;99.90
37956;DHT22;23776;51.592;7.180;2023-09-30T02:28:08;13.00;99.90
37956;DHT22;23776;51.592;7.180;2023-09-30T02:30:34;13.00;99.90
37956;DHT22;23776;51.592;7.180;2023-09-30T02:33:00;12.90;99.90
37956;DHT22;23776;51.592;7.180;2023-09-30T02:35:26;13.00;99.90
37956;DHT22;23776;51.592;7.180;2023-09-30T02:37:52;13.00;99.90
37956;DHT22;23776;51.592;7.180;2023-09-30T02:40:18;13.00;92.60
37956;DHT22;23776;51.592;7.180;2023-09-30T02:42:45;13.00;58.00
37956;DHT22;23776;51.592;7.180;2023-09-30T02:45:11;12.90;64.50
37956;DHT22;23776;51.592;7.180;2023-09-30T02:47:38;12.90;46.00
37956;DHT22;23776;51.592;7.180;2023-09-30T02:50:08;12.80;43.60
37956;DHT22;23776;51.592;7.180;2023-09-30T02:52:36;12.80;75.30
37956;DHT22;23776;51.592;7.180;2023-09-30T02:55:02;12.70;97.70
37956;DHT22;23776;51.592;7.180;2023-09-30T02:57:28;12.70;97.10
37956;DHT22;23776;51.592;7.180;2023-09-30T02:59:54;12.70;97.10
37956;DHT22;23776;51.592;7.180;2023-09-30T03:02:20;12.60;99.90
37956;DHT22;23776;51.592;7.180;2023-09-30T03:04:47;12.50;99.90
37956;DHT22;23776;51.592;7.180;2023-09-30T03:07:13;12.40;99.90
37956;DHT22;23776;51.592;7.180;2023-09-30T03:09:39;12.50;99.90
37956;DHT22;23776;51.592;7.180;2023-09-30T03:12:05;12.50;99.90
37956;DHT22;23776;51.592;7.180;2023-09-30T03:14:31;12.50;99.90
37956;DHT22;23776;51.592;7.180;2023-09-30T03:16:58;12.50;99.90
37956;DHT22;23776;51.592;7.180;2023-09-30T03:19:24;12.60;99.90
37956;DHT22;23776;51.592;7.180;2023-09-30T03:21:50;12.50;99.90
37956;DHT22;23776;51.592;7.180;2023-09-30T03:24:15;12.50;99.90
37956;DHT22;23776;51.592;7.180;2023-09-30T03:26:42;12.60;99.90
37956;DHT22;23776;51.592;7.180;2023-09-30T03:29:09;12.50;99.90
37956;DHT22;23776;51.592;7.180;2023-09-30T03:31:35;12.50;99.90
37956;DHT22;23776;51.592;7.180;2023-09-30T03:34:02;12.50;99.90
37956;DHT22;23776;51.592;7.180;2023-09-30T03:36:29;12.50;99.90
37956;DHT22;23776;51.592;7.180;2023-09-30T03:38:55;12.40;99.90
37956;DHT22;23776;51.592;7.180;2023-09-30T03:41:24;12.40;99.90
37956;DHT22;23776;51.592;7.180;2023-09-30T03:43:50;12.30;99.90
37956;DHT22;23776;51.592;7.180;2023-09-30T03:46:16;12.40;99.90
37956;DHT22;23776;51.592;7.180;2023-09-30T03:48:42;12.40;99.90
37956;DHT22;23776;51.592;7.180;2023-09-30T03:51:13;12.40;99.90
37956;DHT22;23776;51.592;7.180;2023-09-30T03:53:44;12.40;99.90
37956;DHT22;23776;51.592;7.180;2023-09-30T03:56:10;12.50;99.90
37956;DHT22;23776;51.592;7.180;2023-09-30T03:58:43;12.40;99.90
37956;DHT22;23776;51.592;7.180;2023-09-30T04:01:10;12.40;99.90
37956;DHT22;23776;51.592;7.180;2023-09-30T04:03:42;12.40;99.90
37956;DHT22;23776;51.592;7.180;2023-09-30T04:06:08;12.40;99.90
37956;DHT22;23776;51.592;7.180;2023-09-30T04:08:34;12.40;99.90
37956;DHT22;23776;51.592;7.180;2023-09-30T04:11:01;12.30;99.90
37956;DHT22;23776;51.592;7.180;2023-09-30T04:13:28;12.30;99.90
37956;DHT22;23776;51.592;7.180;2023-09-30T04:15:55;12.30;99.90
37956;DHT22;23776;51.592;7.180;2023-09-30T04:18:20;12.30;99.90
37956;DHT22;23776;51.592;7.180;2023-09-30T04:20:48;12.30;99.90
37956;DHT22;23776;51.592;7.180;2023-09-30T04:23:14;12.30;99.90
37956;DHT22;23776;51.592;7.180;2023-09-30T04:25:40;12.30;99.90
37956;DHT22;23776;51.592;7.180;2023-09-30T04:28:06;12.20;99.90
37956;DHT22;23776;51.592;7.180;2023-09-30T04:30:34;12.20;99.90
37956;DHT22;23776;51.592;7.180;2023-09-30T04:33:00;12.20;99.90
37956;DHT22;23776;51.592;7.180;2023-09-30T04:35:26;12.20;99.90
37956;DHT22;23776;51.592;7.180;2023-09-30T04:37:52;12.20;99.90
37956;DHT22;23776;51.592;7.180;2023-09-30T04:40:18;12.20;99.90
37956;DHT22;23776;51.592;7.180;2023-09-30T04:42:45;12.20;99.90
37956;DHT22;23776;51.592;7.180;2023-09-30T04:45:15;12.30;99.90
37956;DHT22;23776;51.592;7.180;2023-09-30T04:47:49;12.30;99.90
37956;DHT22;23776;51.592;7.180;2023-09-30T04:50:16;12.30;99.90
37956;DHT22;23776;51.592;7.180;2023-09-30T04:52:43;12.30;99.90
37956;DHT22;23776;51.592;7.180;2023-09-30T04:55:09;12.20;99.90
37956;DHT22;23776;51.592;7.180;2023-09-30T04:57:37;12.20;99.90
37956;DHT22;23776;51.592;7.180;2023-09-30T05:00:03;12.20;99.90
37956;DHT22;23776;51.592;7.180;2023-09-30T05:02:36;12.20;99.90
37956;DHT22;23776;51.592;7.180;2023-09-30T05:05:02;12.20;99.90
37956;DHT22;23776;51.592;7.180;2023-09-30T05:07:31;12.20;99.90
37956;DHT22;23776;51.592;7.180;2023-09-30T05:09:56;12.10;99.90
37956;DHT22;23776;51.592;7.180;2023-09-30T05:12:23;12.10;99.90
37956;DHT22;23776;51.592;7.180;2023-09-30T05:14:48;12.10;99.90
37956;DHT22;23776;51.592;7.180;2023-09-30T05:17:14;12.10;99.90
37956;DHT22;23776;51.592;7.180;2023-09-30T05:19:39;12.10;99.90
37956;DHT22;23776;51.592;7.180;2023-09-30T05:22:05;12.00;99.90
37956;DHT22;23776;51.592;7.180;2023-09-30T05:24:31;12.00;99.90
37956;DHT22;23776;51.592;7.180;2023-09-30T05:26:56;12.00;99.90
37956;DHT22;23776;51.592;7.180;2023-09-30T05:29:22;12.00;99.90
37956;DHT22;23776;51.592;7.180;2023-09-30T05:31:48;12.10;99.90
37956;DHT22;23776;51.592;7.180;2023-09-30T05:34:14;12.00;99.90
37956;DHT22;23776;51.592;7.180;2023-09-30T05:36:40;12.00;99.90
37956;DHT22;23776;51.592;7.180;2023-09-30T05:39:05;11.90;99.90
37956;DHT22;23776;51.592;7.180;2023-09-30T05:41:31;11.80;99.90
37956;DHT22;23776;51.592;7.180;2023-09-30T05:43:57;11.80;99.90
37956;DHT22;23776;51.592;7.180;2023-09-30T05:46:24;11.90;99.90
37956;DHT22;23776;51.592;7.180;2023-09-30T05:48:50;11.90;99.90
37956;DHT22;23776;51.592;7.180;2023-09-30T05:51:15;11.90;99.90
37956;DHT22;23776;51.592;7.180;2023-09-30T05:53:41;11.90;99.90
37956;DHT22;23776;51.592;7.180;2023-09-30T05:56:08;11.90;99.90
37956;DHT22;23776;51.592;7.180;2023-09-30T05:58:36;11.90;99.90
37956;DHT22;23776;51.592;7.180;2023-09-30T06:01:10;12.00;99.90
37956;DHT22;23776;51.592;7.180;2023-09-30T06:03:41;12.10;99.90
37956;DHT22;23776;51.592;7.180;2023-09-30T06:06:13;12.00;99.90
37956;DHT22;23776;51.592;7.180;2023-09-30T06:08:39;12.10;99.90
37956;DHT22;23776;51.592;7.180;2023-09-30T06:11:05;12.00;99.90
37956;DHT22;23776;51.592;7.180;2023-09-30T06:13:32;12.00;99.90
37956;DHT22;23776;51.592;7.180;2023-09-30T06:15:58;11.90;99.90
37956;DHT22;23776;51.592;7.180;2023-09-30T06:18:24;12.00;99.90
37956;DHT22;23776;51.592;7.180;2023-09-30T06:20:49;12.00;99.90
37956;DHT22;23776;51.592;7.180;2023-09-30T06:23:16;12.00;99.90
37956;DHT22;23776;51.592;7.180;2023-09-30T06:25:42;12.10;99.90
37956;DHT22;23776;51.592;7.180;2023-09-30T06:28:08;12.20;99.90
37956;DHT22;23776;51.592;7.180;2023-09-30T06:30:34;12.10;99.90
37956;DHT22;23776;51.592;7.180;2023-09-30T06:33:01;12.20;99.90
37956;DHT22;23776;51.592;7.180;2023-09-30T06:35:27;12.20;99.90
37956;DHT22;23776;51.592;7.180;2023-09-30T06:37:55;12.30;99.90
37956;DHT22;23776;51.592;7.180;2023-09-30T06:40:20;12.30;99.90
37956;DHT22;23776;51.592;7.180;2023-09-30T06:42:46;12.30;99.90
37956;DHT22;23776;51.592;7.180;2023-09-30T06:45:12;12.30;99.90
37956;DHT22;23776;51.592;7.180;2023-09-30T06:47:40;12.40;99.90
37956;DHT22;23776;51.592;7.180;2023-09-30T06:50:11;12.40;99.90
37956;DHT22;23776;51.592;7.180;2023-09-30T06:52:40;12.50;99.90
37956;DHT22;23776;51.592;7.180;2023-09-30T06:55:08;12.60;99.90
37956;DHT22;23776;51.592;7.180;2023-09-30T06:57:35;12.60;99.90
37956;DHT22;23776;51.592;7.180;2023-09-30T07:00:07;12.70;99.90
37956;DHT22;23776;51.592;7.180;2023-09-30T07:02:34;12.80;99.90
37956;DHT22;23776;51.592;7.180;2023-09-30T07:05:04;12.90;99.90
37956;DHT22;23776;51.592;7.180;2023-09-30T07:07:30;13.00;99.90
37956;DHT22;23776;51.592;7.180;2023-09-30T07:09:56;13.00;99.90
37956;DHT22;23776;51.592;7.180;2023-09-30T07:12:22;13.00;99.90
37956;DHT22;23776;51.592;7.180;2023-09-30T07:14:47;13.10;99.90
37956;DHT22;23776;51.592;7.180;2023-09-30T07:17:13;13.20;99.90
37956;DHT22;23776;51.592;7.180;2023-09-30T07:19:39;13.20;99.90
37956;DHT22;23776;51.592;7.180;2023-09-30T07:22:05;13.40;99.90
37956;DHT22;23776;51.592;7.180;2023-09-30T07:24:31;13.40;99.90
37956;DHT22;23776;51.592;7.180;2023-09-30T07:26:56;13.50;99.90
37956;DHT22;23776;51.592;7.180;2023-09-30T07:29:22;13.60;99.90
37956;DHT22;23776;51.592;7.180;2023-09-30T07:31:48;13.60;99.90
37956;DHT22;23776;51.592;7.180;2023-09-30T07:34:16;13.70;99.90
37956;DHT22;23776;51.592;7.180;2023-09-30T07:36:41;13.80;99.90
37956;DHT22;23776;51.592;7.180;2023-09-30T07:39:08;13.90;99.90
37956;DHT22;23776;51.592;7.180;2023-09-30T07:41:37;14.00;99.90
37956;DHT22;23776;51.592;7.180;2023-09-30T07:44:02;14.00;99.90
37956;DHT22;23776;51.592;7.180;2023-09-30T07:46:28;14.10;99.90
37956;DHT22;23776;51.592;7.180;2023-09-30T07:48:54;14.10;99.90
37956;DHT22;23776;51.592;7.180;2023-09-30T07:51:20;14.20;99.90
37956;DHT22;23776;51.592;7.180;2023-09-30T07:53:47;14.40;99.90
37956;DHT22;23776;51.592;7.180;2023-09-30T07:56:13;14.40;99.90
37956;DHT22;23776;51.592;7.180;2023-09-30T07:58:39;14.50;99.90
37956;DHT22;23776;51.592;7.180;2023-09-30T08:01:05;14.50;99.90
37956;DHT22;23776;51.592;7.180;2023-09-30T08:03:32;14.60;63.80
37956;DHT22;23776;51.592;7.180;2023-09-30T08:05:59;14.60;67.20
37956;DHT22;23776;51.592;7.180;2023-09-30T08:08:25;14.70;43.60
37956;DHT22;23776;51.592;7.180;2023-09-30T08:10:50;14.80;1.00
37956;DHT22;23776;51.592;7.180;2023-09-30T08:13:21;14.90;99.90
37956;DHT22;23776;51.592;7.180;2023-09-30T08:15:49;14.90;99.90
37956;DHT22;23776;51.592;7.180;2023-09-30T08:18:14;15.00;99.90
37956;DHT22;23776;51.592;7.180;2023-09-30T08:20:40;15.10;99.90
37956;DHT22;23776;51.592;7.180;2023-09-30T08:23:05;15.20;99.90
37956;DHT22;23776;51.592;7.180;2023-09-30T08:25:31;15.20;12.20
37956;DHT22;23776;51.592;7.180;2023-09-30T08:27:57;15.30;11.90
37956;DHT22;23776;51.592;7.180;2023-09-30T08:30:23;15.30;1.00
37956;DHT22;23776;51.592;7.180;2023-09-30T08:32:48;15.40;99.90
37956;DHT22;23776;51.592;7.180;2023-09-30T08:35:14;15.50;99.90
37956;DHT22;23776;51.592;7.180;2023-09-30T08:37:40;15.60;99.90
37956;DHT22;23776;51.592;7.180;2023-09-30T08:40:06;15.70;99.90
37956;DHT22;23776;51.592;7.180;2023-09-30T08:42:35;15.80;1.00
37956;DHT22;23776;51.592;7.180;2023-09-30T08:45:01;15.90;99.90
37956;DHT22;23776;51.592;7.180;2023-09-30T08:47:27;15.90;1.00
37956;DHT22;23776;51.592;7.180;2023-09-30T08:49:54;16.00;1.00
37956;DHT22;23776;51.592;7.180;2023-09-30T08:52:23;16.00;96.80
37956;DHT22;23776;51.592;7.180;2023-09-30T08:54:50;16.10;99.90
37956;DHT22;23776;51.592;7.180;2023-09-30T08:57:18;16.20;1.00
37956;DHT22;23776;51.592;7.180;2023-09-30T08:59:46;16.30;1.00
37956;DHT22;23776;51.592;7.180;2023-09-30T09:02:12;16.40;1.00
37956;DHT22;23776;51.592;7.180;2023-09-30T09:04:38;16.40;99.90
37956;DHT22;23776;51.592;7.180;2023-09-30T09:07:03;16.40;1.00
37956;DHT22;23776;51.592;7.180;2023-09-30T09:09:29;16.50;99.90
37956;DHT22;23776;51.592;7.180;2023-09-30T09:11:55;16.60;99.90
37956;DHT22;23776;51.592;7.180;2023-09-30T09:14:41;16.60;1.00
37956;DHT22;23776;51.592;7.180;2023-09-30T09:17:10;16.80;6.70
37956;DHT22;23776;51.592;7.180;2023-09-30T09:19:36;16.80;99.90
37956;DHT22;23776;51.592;7.180;2023-09-30T09:22:03;16.90;99.90
37956;DHT22;23776;51.592;7.180;2023-09-30T09:24:38;16.90;99.90
37956;DHT22;23776;51.592;7.180;2023-09-30T09:27:12;17.10;99.90
37956;DHT22;23776;51.592;7.180;2023-09-30T09:29:40;17.10;99.90
37956;DHT22;23776;51.592;7.180;2023-09-30T09:34:33;17.50;96.80
37956;DHT22;23776;51.592;7.180;2023-09-30T09:36:59;17.70;41.60
37956;DHT22;23776;51.592;7.180;2023-09-30T09:39:30;17.80;1.00
37956;DHT22;23776;51.592;7.180;2023-09-30T09:41:56;17.90;99.90
37956;DHT22;23776;51.592;7.180;2023-09-30T09:44:24;17.80;99.90
37956;DHT22;23776;51.592;7.180;2023-09-30T09:46:52;17.80;99.90
37956;DHT22;23776;51.592;7.180;2023-09-30T09:49:20;17.90;99.90
37956;DHT22;23776;51.592;7.180;2023-09-30T09:51:47;17.90;99.90
37956;DHT22;23776;51.592;7.180;2023-09-30T09:54:14;17.70;99.90
37956;DHT22;23776;51.592;7.180;2023-09-30T09:56:45;17.60;99.90
37956;DHT22;23776;51.592;7.180;2023-09-30T09:59:14;17.70;99.90
37956;DHT22;23776;51.592;7.180;2023-09-30T10:01:40;17.80;99.90
37956;DHT22;23776;51.592;7.180;2023-09-30T10:04:06;17.90;86.00
37956;DHT22;23776;51.592;7.180;2023-09-30T10:06:34;18.00;81.20
37956;DHT22;23776;51.592;7.180;2023-09-30T10:09:09;18.00;40.00
37956;DHT22;23776;51.592;7.180;2023-09-30T10:11:36;18.10;10.80
37956;DHT22;23776;51.592;7.180;2023-09-30T10:14:01;18.20;8.60
37956;DHT22;23776;51.592;7.180;2023-09-30T10:19:13;18.60;1.00
37956;DHT22;23776;51.592;7.180;2023-09-30T10:21:40;18.80;1.00
37956;DHT22;23776;51.592;7.180;2023-09-30T10:27:27;19.20;1.00
37956;DHT22;23776;51.592;7.180;2023-09-30T10:35:20;21.30;99.90
37956;DHT22;23776;51.592;7.180;2023-09-30T10:37:46;22.00;99.90
37956;DHT22;23776;51.592;7.180;2023-09-30T10:40:28;22.40;99.90
37956;DHT22;23776;51.592;7.180;2023-09-30T10:42:54;22.90;99.90
37956;DHT22;23776;51.592;7.180;2023-09-30T10:51:10;23.10;99.90
37956;DHT22;23776;51.592;7.180;2023-09-30T10:53:43;23.70;99.90
37956;DHT22;23776;51.592;7.180;2023-09-30T10:56:08;23.80;99.90
37956;DHT22;23776;51.592;7.180;2023-09-30T10:58:48;24.30;99.90
37956;DHT22;23776;51.592;7.180;2023-09-30T11:01:21;24.90;99.90
37956;DHT22;23776;51.592;7.180;2023-09-30T11:03:48;25.10;99.90
37956;DHT22;23776;51.592;7.180;2023-09-30T11:06:19;25.10;99.90
37956;DHT22;23776;51.592;7.180;2023-09-30T11:08:57;24.30;99.90
37956;DHT22;23776;51.592;7.180;2023-09-30T11:11:45;24.20;99.90
37956;DHT22;23776;51.592;7.180;2023-09-30T11:16:46;24.90;99.90
37956;DHT22;23776;51.592;7.180;2023-09-30T11:19:12;25.10;99.90
37956;DHT22;23776;51.592;7.180;2023-09-30T11:21:39;25.20;99.90
37956;DHT22;23776;51.592;7.180;2023-09-30T11:24:06;26.00;99.90
37956;DHT22;23776;51.592;7.180;2023-09-30T11:26:33;26.30;99.90
37956;DHT22;23776;51.592;7.180;2023-09-30T11:31:31;26.30;99.90
37956;DHT22;23776;51.592;7.180;2023-09-30T11:33:59;26.60;99.90
37956;DHT22;23776;51.592;7.180;2023-09-30T11:36:29;26.60;99.90
37956;DHT22;23776;51.592;7.180;2023-09-30T11:38:55;27.30;99.90
37956;DHT22;23776;51.592;7.180;2023-09-30T11:41:21;27.80;99.90
37956;DHT22;23776;51.592;7.180;2023-09-30T11:46:31;27.80;99.90
37956;DHT22;23776;51.592;7.180;2023-09-30T11:49:03;28.20;99.90
37956;DHT22;23776;51.592;7.180;2023-09-30T11:51:34;28.70;99.90
37956;DHT22;23776;51.592;7.180;2023-09-30T11:54:08;28.90;99.90
37956;DHT22;23776;51.592;7.180;2023-09-30T11:56:36;28.80;99.90
37956;DHT22;23776;51.592;7.180;2023-09-30T11:59:02;28.90;99.90
37956;DHT22;23776;51.592;7.180;2023-09-30T12:01:29;28.90;99.90
37956;DHT22;23776;51.592;7.180;2023-09-30T12:03:58;29.00;99.90
37956;DHT22;23776;51.592;7.180;2023-09-30T12:06:23;28.50;99.90
37956;DHT22;23776;51.592;7.180;2023-09-30T12:08:49;27.50;99.90
37956;DHT22;23776;51.592;7.180;2023-09-30T12:11:20;26.60;99.90
37956;DHT22;23776;51.592;7.180;2023-09-30T12:13:46;26.60;99.90
37956;DHT22;23776;51.592;7.180;2023-09-30T12:16:15;26.50;99.90
37956;DHT22;23776;51.592;7.180;2023-09-30T12:18:40;26.90;99.90
37956;DHT22;23776;51.592;7.180;2023-09-30T12:21:10;27.50;99.90
37956;DHT22;23776;51.592;7.180;2023-09-30T12:23:36;26.60;99.90
37956;DHT22;23776;51.592;7.180;2023-09-30T12:26:02;26.90;99.90
37956;DHT22;23776;51.592;7.180;2023-09-30T12:28:33;25.80;99.90
37956;DHT22;23776;51.592;7.180;2023-09-30T12:30:59;25.30;99.90
37956;DHT22;23776;51.592;7.180;2023-09-30T12:33:28;24.50;99.90
37956;DHT22;23776;51.592;7.180;2023-09-30T12:35:54;24.80;99.90
37956;DHT22;23776;51.592;7.180;2023-09-30T12:38:19;24.50;99.90
37956;DHT22;23776;51.592;7.180;2023-09-30T12:40:45;24.50;99.90
37956;DHT22;23776;51.592;7.180;2023-09-30T12:43:10;24.60;99.90
37956;DHT22;23776;51.592;7.180;2023-09-30T12:45:36;24.50;99.90
37956;DHT22;23776;51.592;7.180;2023-09-30T12:48:04;24.60;99.90
37956;DHT22;23776;51.592;7.180;2023-09-30T12:50:30;24.70;99.90
37956;DHT22;23776;51.592;7.180;2023-09-30T12:52:55;24.70;99.90
37956;DHT22;23776;51.592;7.180;2023-09-30T12:55:21;24.30;99.90
37956;DHT22;23776;51.592;7.180;2023-09-30T12:57:47;24.30;99.90
37956;DHT22;23776;51.592;7.180;2023-09-30T13:00:13;24.30;99.90
37956;DHT22;23776;51.592;7.180;2023-09-30T13:02:41;23.50;99.90
37956;DHT22;23776;51.592;7.180;2023-09-30T13:05:08;23.50;99.90
37956;DHT22;23776;51.592;7.180;2023-09-30T13:07:34;23.30;99.90
37956;DHT22;23776;51.592;7.180;2023-09-30T13:09:59;23.10;99.90
37956;DHT22;23776;51.592;7.180;2023-09-30T13:12:26;22.90;99.90
37956;DHT22;23776;51.592;7.180;2023-09-30T13:14:52;22.90;99.90
37956;DHT22;23776;51.592;7.180;2023-09-30T13:17:22;22.40;99.90
37956;DHT22;23776;51.592;7.180;2023-09-30T13:19:47;22.40;99.90
37956;DHT22;23776;51.592;7.180;2023-09-30T13:22:13;22.50;99.90
37956;DHT22;23776;51.592;7.180;2023-09-30T13:24:38;22.40;99.90
37956;DHT22;23776;51.592;7.180;2023-09-30T13:27:05;22.50;99.90
37956;DHT22;23776;51.592;7.180;2023-09-30T13:29:31;22.60;99.90
37956;DHT22;23776;51.592;7.180;2023-09-30T13:31:57;22.60;99.90
37956;DHT22;23776;51.592;7.180;2023-09-30T13:34:22;22.50;99.90
37956;DHT22;23776;51.592;7.180;2023-09-30T13:36:48;22.30;99.90
37956;DHT22;23776;51.592;7.180;2023-09-30T13:39:14;22.30;99.90
37956;DHT22;23776;51.592;7.180;2023-09-30T13:41:39;22.40;99.90
37956;DHT22;23776;51.592;7.180;2023-09-30T13:44:06;22.50;99.90
37956;DHT22;23776;51.592;7.180;2023-09-30T13:46:31;22.60;99.90
37956;DHT22;23776;51.592;7.180;2023-09-30T13:48:57;22.70;99.90
37956;DHT22;23776;51.592;7.180;2023-09-30T13:51:22;22.50;99.90
37956;DHT22;23776;51.592;7.180;2023-09-30T13:53:48;22.70;99.90
37956;DHT22;23776;51.592;7.180;2023-09-30T13:56:14;22.70;99.90
37956;DHT22;23776;51.592;7.180;2023-09-30T13:58:39;22.70;99.90
37956;DHT22;23776;51.592;7.180;2023-09-30T14:01:05;22.70;99.90
37956;DHT22;23776;51.592;7.180;2023-09-30T14:03:32;22.90;99.90
37956;DHT22;23776;51.592;7.180;2023-09-30T14:05:59;22.80;99.90
37956;DHT22;23776;51.592;7.180;2023-09-30T14:08:24;22.70;99.90
37956;DHT22;23776;51.592;7.180;2023-09-30T14:10:50;22.50;99.90
37956;DHT22;23776;51.592;7.180;2023-09-30T14:13:19;22.40;99.90
37956;DHT22;23776;51.592;7.180;2023-09-30T14:15:45;22.20;99.90
37956;DHT22;23776;51.592;7.180;2023-09-30T14:18:12;22.00;99.90
37956;DHT22;23776;51.592;7.180;2023-09-30T14:20:37;21.90;99.90
37956;DHT22;23776;51.592;7.180;2023-09-30T14:23:03;21.80;99.90
37956;DHT22;23776;51.592;7.180;2023-09-30T14:25:29;22.00;99.90
37956;DHT22;23776;51.592;7.180;2023-09-30T14:27:54;22.10;99.90
37956;DHT22;23776;51.592;7.180;2023-09-30T14:30:21;22.30;99.90
37956;DHT22;23776;51.592;7.180;2023-09-30T14:32:47;22.70;99.90
37956;DHT22;23776;51.592;7.180;2023-09-30T14:35:13;22.90;99.90
37956;DHT22;23776;51.592;7.180;2023-09-30T14:37:39;22.90;99.90
37956;DHT22;23776;51.592;7.180;2023-09-30T14:40:06;23.20;99.90
37956;DHT22;23776;51.592;7.180;2023-09-30T14:42:36;23.20;99.90
37956;DHT22;23776;51.592;7.180;2023-09-30T14:45:02;23.30;99.90
37956;DHT22;23776;51.592;7.180;2023-09-30T14:47:28;23.20;99.90
37956;DHT22;23776;51.592;7.180;2023-09-30T14:49:54;23.20;99.90
37956;DHT22;23776;51.592;7.180;2023-09-30T14:52:19;23.20;99.90
37956;DHT22;23776;51.592;7.180;2023-09-30T14:54:45;23.20;99.90
37956;DHT22;23776;51.592;7.180;2023-09-30T14:57:10;23.20;99.90
37956;DHT22;23776;51.592;7.180;2023-09-30T14:59:39;22.90;99.90
37956;DHT22;23776;51.592;7.180;2023-09-30T15:02:06;22.60;99.90
37956;DHT22;23776;51.592;7.180;2023-09-30T15:04:34;22.30;99.90
37956;DHT22;23776;51.592;7.180;2023-09-30T15:06:59;22.20;99.90
37956;DHT22;23776;51.592;7.180;2023-09-30T15:09:26;22.00;99.90
37956;DHT22;23776;51.592;7.180;2023-09-30T15:11:52;22.00;99.90
37956;DHT22;23776;51.592;7.180;2023-09-30T15:14:18;22.00;99.90
37956;DHT22;23776;51.592;7.180;2023-09-30T15:16:44;22.10;99.90
37956;DHT22;23776;51.592;7.180;2023-09-30T15:19:10;22.10;99.90
37956;DHT22;23776;51.592;7.180;2023-09-30T15:21:35;20.80;99.90
37956;DHT22;23776;51.592;7.180;2023-09-30T15:24:01;21.70;99.90
37956;DHT22;23776;51.592;7.180;2023-09-30T15:26:28;21.60;99.90
37956;DHT22;23776;51.592;7.180;2023-09-30T15:28:54;21.50;99.90
37956;DHT22;23776;51.592;7.180;2023-09-30T15:31:20;21.50;99.90
37956;DHT22;23776;51.592;7.180;2023-09-30T15:33:46;21.40;99.90
37956;DHT22;23776;51.592;7.180;2023-09-30T15:36:13;21.40;99.90
37956;DHT22;23776;51.592;7.180;2023-09-30T15:38:39;21.30;99.90
37956;DHT22;23776;51.592;7.180;2023-09-30T15:41:05;21.20;99.90
37956;DHT22;23776;51.592;7.180;2023-09-30T15:43:32;21.10;99.90
37956;DHT22;23776;51.592;7.180;2023-09-30T15:46:01;21.00;99.90
37956;DHT22;23776;51.592;7.180;2023-09-30T15:48:27;20.80;99.90
37956;DHT22;23776;51.592;7.180;2023-09-30T15:50:53;20.70;99.90
37956;DHT22;23776;51.592;7.180;2023-09-30T15:53:18;20.50;99.90
37956;DHT22;23776;51.592;7.180;2023-09-30T15:55:44;20.30;99.90
37956;DHT22;23776;51.592;7.180;2023-09-30T15:58:10;20.20;99.90
37956;DHT22;23776;51.592;7.180;2023-09-30T16:00:37;20.20;99.90